Time;durP1;ratioP1;P1;durP2;ratioP2;P2;SDS_P1;SDS_P2;PMS_P1;PMS_P2;Temp;Humidity;BMP_temperature;BMP_pressure;BME280_temperature;BME280_humidity;BME280_pressure;Samples;Min_cycle;Max_cycle;Signal;HPM_P1;HPM_P2
2023/10/09 00:01:04;;;;;;;3.90;2.70;;;19.00;99.90;;;;;;5097481;28;20514;-88
2023/10/09 00:03:30;;;;;;;3.47;2.87;;;19.00;99.90;;;;;;5102272;28;20224;-88
2023/10/09 00:05:56;;;;;;;4.73;2.90;;;19.00;99.90;;;;;;5099391;28;20202;-88
2023/10/09 00:08:21;;;;;;;2.97;2.67;;;19.00;99.90;;;;;;5097847;28;20601;-88
2023/10/09 00:10:52;;;;;;;3.33;2.57;;;19.00;99.90;;;;;;5102338;28;20482;-88
2023/10/09 00:13:19;;;;;;;3.53;2.73;;;19.00;99.90;;;;;;5096812;28;20181;-88
2023/10/09 00:15:52;;;;;;;3.57;3.00;;;19.00;99.90;;;;;;5104766;28;20175;-88
2023/10/09 00:18:23;;;;;;;3.67;2.90;;;19.00;99.90;;;;;;5096008;28;20171;-88
2023/10/09 00:20:54;;;;;;;3.07;2.77;;;19.00;99.90;;;;;;5104904;28;20178;-88
2023/10/09 00:23:20;;;;;;;4.10;2.80;;;19.00;99.90;;;;;;5097762;28;20242;-88
2023/10/09 00:26:06;;;;;;;2.77;2.47;;;19.00;99.90;;;;;;5116784;28;20186;-89
2023/10/09 00:28:34;;;;;;;3.37;2.53;;;19.00;99.90;;;;;;5115628;28;20178;-89
2023/10/09 00:31:04;;;;;;;4.03;2.93;;;19.00;99.90;;;;;;5118175;28;20202;-89
2023/10/09 00:33:30;;;;;;;4.87;2.80;;;19.00;99.90;;;;;;5118000;28;20196;-89
2023/10/09 00:35:55;;;;;;;4.10;3.20;;;19.00;99.90;;;;;;5109574;28;20285;-88
2023/10/09 00:41:02;;;;;;;4.30;3.00;;;19.00;99.90;;;;;;5111048;28;20192;-88
2023/10/09 00:43:29;;;;;;;4.37;3.23;;;19.00;99.90;;;;;;5115852;28;20170;-88
2023/10/09 00:45:57;;;;;;;3.97;2.87;;;19.00;99.90;;;;;;5102080;28;20185;-88
2023/10/09 00:48:31;;;;;;;3.20;2.73;;;19.00;99.90;;;;;;5114484;28;20231;-88
2023/10/09 00:51:00;;;;;;;4.03;2.70;;;19.00;99.90;;;;;;5109921;28;20512;-88
2023/10/09 00:53:33;;;;;;;3.77;2.67;;;19.00;99.90;;;;;;5095353;28;20262;-88
2023/10/09 00:56:04;;;;;;;3.40;2.63;;;19.00;99.90;;;;;;5107360;28;20170;-89
2023/10/09 00:58:35;;;;;;;3.33;2.60;;;19.00;99.90;;;;;;5093989;28;20186;-88
2023/10/09 01:01:04;;;;;;;2.67;2.40;;;19.00;99.90;;;;;;5106623;28;20237;-86
2023/10/09 01:03:33;;;;;;;3.37;2.53;;;18.90;99.90;;;;;;5094066;28;20270;-85
2023/10/09 01:06:16;;;;;;;4.67;2.83;;;19.00;99.90;;;;;;5100403;28;20212;-85
2023/10/09 01:11:29;;;;;;;5.53;3.03;;;19.00;99.90;;;;;;5104384;28;20505;-86
2023/10/09 01:14:10;;;;;;;3.10;2.67;;;19.00;99.90;;;;;;5098805;28;20175;-88
2023/10/09 01:16:37;;;;;;;5.50;2.80;;;18.90;99.90;;;;;;5105420;28;20166;-87
2023/10/09 01:19:13;;;;;;;3.30;2.83;;;19.00;99.90;;;;;;5096580;28;20218;-87
2023/10/09 01:21:42;;;;;;;3.30;2.70;;;19.00;99.90;;;;;;5098079;28;20483;-88
2023/10/09 01:24:08;;;;;;;4.60;2.90;;;19.00;99.90;;;;;;5098665;28;20171;-88
2023/10/09 01:26:46;;;;;;;4.13;2.70;;;19.00;99.90;;;;;;5102276;28;20199;-88
2023/10/09 01:29:19;;;;;;;3.40;2.90;;;18.90;99.90;;;;;;5118023;28;20182;-88
2023/10/09 01:34:44;;;;;;;3.03;2.33;;;19.00;99.90;;;;;;5093866;28;20201;-89
2023/10/09 01:37:25;;;;;;;3.70;2.90;;;19.00;99.90;;;;;;5109844;28;20281;-89
2023/10/09 01:39:53;;;;;;;4.20;3.00;;;19.00;99.90;;;;;;5119535;28;20295;-88
2023/10/09 01:42:44;;;;;;;4.10;2.90;;;19.00;99.90;;;;;;5103574;28;20444;-88
2023/10/09 01:45:13;;;;;;;4.90;2.97;;;19.00;99.90;;;;;;5096307;28;20281;-88
2023/10/09 01:47:39;;;;;;;4.23;3.10;;;19.00;99.90;;;;;;5109678;28;20228;-88
2023/10/09 01:50:10;;;;;;;3.60;2.90;;;19.00;99.90;;;;;;5096300;28;20473;-88
2023/10/09 01:52:37;;;;;;;3.27;2.50;;;18.90;99.90;;;;;;5109451;28;20430;-89
2023/10/09 01:55:07;;;;;;;3.87;2.73;;;19.00;99.90;;;;;;5120413;28;20170;-88
2023/10/09 01:57:34;;;;;;;4.57;3.10;;;19.00;99.90;;;;;;5119878;28;20180;-88
2023/10/09 01:59:59;;;;;;;3.73;3.17;;;19.00;99.90;;;;;;5104564;28;20187;-88
2023/10/09 02:02:25;;;;;;;4.07;3.13;;;19.00;99.90;;;;;;5103024;28;20175;-89
2023/10/09 02:07:51;;;;;;;3.50;2.83;;;19.00;99.90;;;;;;5092934;28;20179;-88
2023/10/09 02:10:25;;;;;;;3.63;2.70;;;19.00;99.90;;;;;;5116205;28;20170;-88
2023/10/09 02:12:59;;;;;;;3.53;3.10;;;19.00;99.90;;;;;;5113019;28;20170;-89
2023/10/09 02:23:49;;;;;;;4.77;2.83;;;19.00;99.90;;;;;;5112130;28;20182;-88
2023/10/09 02:29:18;;;;;;;4.60;3.13;;;18.90;99.90;;;;;;5119130;28;20197;-88
2023/10/09 02:31:47;;;;;;;3.67;2.53;;;19.00;99.90;;;;;;5100576;28;20202;-88
2023/10/09 02:34:15;;;;;;;3.90;2.80;;;18.90;99.90;;;;;;5102343;28;20174;-88
2023/10/09 02:36:49;;;;;;;3.43;2.50;;;18.90;99.90;;;;;;5116457;28;20188;-88
2023/10/09 02:39:24;;;;;;;3.53;2.90;;;19.00;99.90;;;;;;5103507;28;20193;-88
2023/10/09 02:44:46;;;;;;;3.83;2.83;;;18.90;99.90;;;;;;5108890;28;20170;-88
2023/10/09 02:47:20;;;;;;;3.30;2.70;;;19.00;99.90;;;;;;5094414;28;20167;-88
2023/10/09 02:49:48;;;;;;;4.30;2.77;;;19.00;99.90;;;;;;5099237;28;20284;-88
2023/10/09 02:52:18;;;;;;;4.07;2.93;;;19.00;99.90;;;;;;5116929;28;20214;-88
2023/10/09 02:54:47;;;;;;;2.90;2.60;;;18.90;99.90;;;;;;5115655;28;20205;-88
2023/10/09 02:57:21;;;;;;;4.03;2.80;;;18.90;99.90;;;;;;5098658;28;20171;-89
2023/10/09 02:59:51;;;;;;;4.23;2.90;;;18.90;99.90;;;;;;5103016;28;20177;-89
2023/10/09 03:02:18;;;;;;;4.27;2.90;;;19.00;99.90;;;;;;5116892;28;20170;-88
2023/10/09 03:04:44;;;;;;;3.17;2.70;;;18.90;99.90;;;;;;5108085;28;20569;-89
2023/10/09 03:07:10;;;;;;;3.60;2.90;;;19.00;99.90;;;;;;5113428;28;20170;-88
2023/10/09 03:09:37;;;;;;;3.27;2.70;;;18.90;99.90;;;;;;5111437;28;20190;-89
2023/10/09 03:12:04;;;;;;;4.07;3.17;;;18.90;99.90;;;;;;5113185;28;20221;-88
2023/10/09 03:14:38;;;;;;;3.63;2.90;;;18.90;99.90;;;;;;5114078;28;20529;-88
2023/10/09 03:17:04;;;;;;;4.10;2.90;;;18.90;99.90;;;;;;5098815;28;20429;-89
2023/10/09 03:19:37;;;;;;;3.90;2.93;;;19.00;99.90;;;;;;5099765;28;20159;-88
2023/10/09 03:22:06;;;;;;;3.27;2.77;;;19.00;99.90;;;;;;5110865;28;20229;-90
2023/10/09 03:24:32;;;;;;;3.20;2.90;;;18.90;99.90;;;;;;5113343;28;20228;-88
2023/10/09 03:26:57;;;;;;;4.07;3.00;;;18.90;99.90;;;;;;5108348;28;20201;-88
2023/10/09 03:29:24;;;;;;;4.70;2.90;;;18.90;99.90;;;;;;5098314;28;20548;-88
2023/10/09 03:31:51;;;;;;;4.00;3.07;;;18.90;99.90;;;;;;5099153;28;20293;-88
2023/10/09 03:34:18;;;;;;;4.20;2.90;;;18.90;99.90;;;;;;5099138;28;20183;-88
2023/10/09 03:36:48;;;;;;;3.97;2.90;;;19.00;99.90;;;;;;5109468;28;20576;-88
2023/10/09 03:39:33;;;;;;;3.93;2.90;;;18.90;99.90;;;;;;5096372;28;20182;-87
2023/10/09 03:41:59;;;;;;;3.63;3.10;;;19.00;99.90;;;;;;5115945;28;20166;-88
2023/10/09 03:44:28;;;;;;;3.00;2.60;;;18.90;99.90;;;;;;5117814;28;20178;-89
2023/10/09 03:46:55;;;;;;;3.13;2.60;;;18.90;99.90;;;;;;5109843;28;20183;-88
2023/10/09 03:49:25;;;;;;;3.70;2.73;;;18.90;99.90;;;;;;5097240;28;20171;-89
2023/10/09 03:51:51;;;;;;;3.20;2.73;;;18.90;99.90;;;;;;5097798;28;20301;-89
2023/10/09 03:54:20;;;;;;;3.13;2.50;;;18.90;99.90;;;;;;5106990;28;20171;-88
2023/10/09 03:56:50;;;;;;;3.90;2.83;;;18.90;99.90;;;;;;5102890;28;20264;-88
2023/10/09 03:59:20;;;;;;;3.10;2.77;;;19.00;99.90;;;;;;5116723;28;20254;-88
2023/10/09 04:01:48;;;;;;;3.33;2.80;;;19.00;99.90;;;;;;5112656;28;20185;-89
2023/10/09 04:04:14;;;;;;;4.03;2.87;;;19.00;99.90;;;;;;5096698;28;20495;-88
2023/10/09 04:06:42;;;;;;;6.27;2.87;;;19.00;99.90;;;;;;5096280;28;20174;-89
2023/10/09 04:14:43;;;;;;;3.30;2.77;;;19.00;99.90;;;;;;5092740;28;20449;-88
2023/10/09 04:22:49;;;;;;;3.13;2.53;;;19.00;99.90;;;;;;5108291;28;20358;-88
2023/10/09 04:25:25;;;;;;;3.33;2.30;;;18.90;99.90;;;;;;5113364;28;20182;-89
2023/10/09 04:27:57;;;;;;;4.03;2.57;;;18.90;99.90;;;;;;5111337;28;20170;-89
2023/10/09 04:30:25;;;;;;;3.33;2.60;;;19.00;99.90;;;;;;5091679;28;20234;-88
2023/10/09 04:32:55;;;;;;;3.13;2.40;;;19.00;99.90;;;;;;5105044;28;20185;-89
2023/10/09 04:35:24;;;;;;;3.57;2.80;;;19.00;99.90;;;;;;5095337;28;20259;-90
2023/10/09 04:38:03;;;;;;;2.93;2.40;;;19.00;99.90;;;;;;5103713;28;20189;-87
2023/10/09 04:40:48;;;;;;;3.50;2.70;;;18.90;99.90;;;;;;5119799;28;20174;-88
2023/10/09 04:43:20;;;;;;;3.17;2.60;;;19.00;99.90;;;;;;5109341;28;20354;-89
2023/10/09 04:46:06;;;;;;;3.93;3.00;;;18.90;99.90;;;;;;5119880;28;20177;-88
2023/10/09 04:48:38;;;;;;;3.47;2.77;;;18.90;99.90;;;;;;5107589;28;20179;-88
2023/10/09 04:51:20;;;;;;;3.30;2.53;;;19.00;99.90;;;;;;5118162;28;20213;-88
2023/10/09 04:53:50;;;;;;;4.27;2.90;;;18.90;99.90;;;;;;5108875;28;20457;-88
2023/10/09 04:56:16;;;;;;;3.60;2.83;;;19.00;99.90;;;;;;5115907;28;20168;-88
2023/10/09 04:58:43;;;;;;;3.33;2.40;;;19.00;99.90;;;;;;5110665;28;20179;-88
2023/10/09 05:01:13;;;;;;;3.53;2.53;;;18.90;99.90;;;;;;5113528;28;20550;-88
2023/10/09 05:06:21;;;;;;;3.33;2.70;;;18.90;99.90;;;;;;5109216;28;20269;-88
2023/10/09 05:08:48;;;;;;;5.23;3.03;;;19.00;99.90;;;;;;5111060;28;20484;-88
2023/10/09 05:11:34;;;;;;;4.20;2.83;;;18.90;99.90;;;;;;5095574;28;20595;-88
2023/10/09 05:14:12;;;;;;;4.33;2.83;;;18.90;99.90;;;;;;5100871;28;20543;-88
2023/10/09 05:16:53;;;;;;;3.87;2.80;;;19.00;99.90;;;;;;5093787;28;20240;-88
2023/10/09 05:19:42;;;;;;;3.30;2.70;;;19.00;99.90;;;;;;5102777;28;20166;-88
2023/10/09 05:22:29;;;;;;;3.33;2.70;;;19.00;99.90;;;;;;5090777;28;20397;-88
2023/10/09 05:24:58;;;;;;;2.90;2.57;;;18.90;99.90;;;;;;5105102;28;20486;-88
2023/10/09 05:27:45;;;;;;;3.07;2.50;;;19.00;99.90;;;;;;5090830;28;20193;-88
2023/10/09 05:30:24;;;;;;;2.97;2.67;;;19.00;99.90;;;;;;5098003;28;20183;-88
2023/10/09 05:32:54;;;;;;;4.07;2.60;;;18.90;99.90;;;;;;5110632;28;20178;-88
2023/10/09 05:35:29;;;;;;;2.53;2.30;;;19.00;99.90;;;;;;5097514;27;20179;-88
2023/10/09 05:38:03;;;;;;;3.13;2.70;;;18.90;99.90;;;;;;5110111;28;20242;-88
2023/10/09 05:40:31;;;;;;;2.80;2.50;;;18.90;99.90;;;;;;5100906;28;20170;-88
2023/10/09 05:43:02;;;;;;;3.57;2.87;;;19.00;99.90;;;;;;5113403;28;20171;-88
2023/10/09 05:51:10;;;;;;;4.00;2.80;;;18.90;99.90;;;;;;5109005;28;20198;-87
2023/10/09 06:04:49;;;;;;;4.53;2.73;;;19.00;99.90;;;;;;5088598;28;20171;-88
2023/10/09 06:07:13;;;;;;;3.83;2.60;;;18.90;99.90;;;;;;5107522;28;20210;-89
2023/10/09 06:09:56;;;;;;;3.23;2.50;;;18.90;99.90;;;;;;5095718;28;20453;-88
2023/10/09 06:12:49;;;;;;;3.60;3.00;;;19.00;99.90;;;;;;5114091;28;20217;-87
2023/10/09 06:15:30;;;;;;;3.43;2.83;;;18.90;99.90;;;;;;5112488;28;20158;-88
2023/10/09 06:18:25;;;;;;;3.23;2.73;;;19.00;99.90;;;;;;5101741;28;20269;-89
2023/10/09 06:23:57;;;;;;;3.10;2.67;;;19.00;99.90;;;;;;5093718;28;20244;-89
2023/10/09 06:26:24;;;;;;;3.20;2.63;;;19.00;99.90;;;;;;5095167;28;20162;-89
2023/10/09 06:29:13;;;;;;;3.67;2.77;;;19.00;99.90;;;;;;5110784;28;20657;-88
2023/10/09 06:34:24;;;;;;;3.30;2.60;;;19.00;99.90;;;;;;5113920;28;20322;-89
2023/10/09 06:36:53;;;;;;;2.50;2.30;;;19.00;99.90;;;;;;5102044;28;20225;-88
2023/10/09 06:42:30;;;;;;;2.87;2.30;;;19.00;99.90;;;;;;5110292;28;20258;-88
2023/10/09 06:44:55;;;;;;;2.90;2.60;;;19.00;99.90;;;;;;5093561;28;20171;-88
2023/10/09 06:47:24;;;;;;;2.87;2.40;;;19.00;99.90;;;;;;5096426;28;20185;-89
2023/10/09 06:50:24;;;;;;;3.90;2.83;;;19.00;99.90;;;;;;5109332;28;20276;-89
2023/10/09 06:55:32;;;;;;;4.30;2.87;;;19.00;99.90;;;;;;5093165;28;20284;-89
2023/10/09 06:58:01;;;;;;;3.47;2.63;;;19.00;99.90;;;;;;5094428;28;20210;-89
2023/10/09 07:03:12;;;;;;;4.27;3.17;;;19.00;99.90;;;;;;5100223;28;20173;-88
2023/10/09 07:08:44;;;;;;;3.37;2.63;;;19.00;99.90;;;;;;5097666;28;20183;-89
2023/10/09 07:11:56;;;;;;;4.20;2.90;;;19.10;99.90;;;;;;5089426;28;20240;-88
2023/10/09 07:17:15;;;;;;;3.93;3.30;;;19.10;99.90;;;;;;5106626;28;20423;-87
2023/10/09 07:27:43;;;;;;;5.17;3.10;;;19.10;99.90;;;;;;5104530;28;20167;-88
2023/10/09 07:38:28;;;;;;;11.70;4.10;;;19.10;99.90;;;;;;5089611;28;20575;-87
2023/10/09 07:49:21;;;;;;;10.77;3.73;;;19.10;99.90;;;;;;5097436;28;20575;-89
2023/10/09 07:51:46;;;;;;;9.90;3.63;;;19.20;99.90;;;;;;5101919;28;20290;-88
2023/10/09 07:54:15;;;;;;;10.83;4.50;;;19.10;99.90;;;;;;5099259;28;20210;-88
2023/10/09 07:56:45;;;;;;;9.40;3.80;;;19.20;99.90;;;;;;5088572;28;20174;-89
2023/10/09 07:59:18;;;;;;;11.17;4.03;;;19.20;99.90;;;;;;5097596;28;20181;-89
2023/10/09 08:02:02;;;;;;;9.03;3.77;;;19.20;99.90;;;;;;5089540;28;20167;-89
2023/10/09 08:07:34;;;;;;;7.27;3.50;;;19.20;99.90;;;;;;5092371;28;20182;-89
2023/10/09 08:18:03;;;;;;;5.80;3.73;;;19.20;99.90;;;;;;5085682;28;20234;-89
2023/10/09 08:23:28;;;;;;;6.73;3.67;;;19.20;99.90;;;;;;5084688;28;20178;-89
2023/10/09 08:26:13;;;;;;;8.47;3.50;;;19.20;99.90;;;;;;5096510;28;20234;-87
2023/10/09 08:28:43;;;;;;;9.03;3.80;;;19.30;99.90;;;;;;5084127;28;20257;-87
2023/10/09 08:33:58;;;;;;;8.93;3.80;;;19.30;99.90;;;;;;5103998;28;20340;-87
2023/10/09 08:36:28;;;;;;;9.93;4.33;;;19.30;99.90;;;;;;5086862;28;20186;-86
2023/10/09 08:38:58;;;;;;;8.60;3.80;;;19.30;99.90;;;;;;5101275;28;20166;-88
2023/10/09 08:41:29;;;;;;;5.93;3.80;;;19.30;99.90;;;;;;5089129;28;20174;-87
2023/10/09 08:43:57;;;;;;;8.70;4.00;;;19.30;99.90;;;;;;5102582;28;20311;-87
2023/10/09 08:46:27;;;;;;;9.33;3.90;;;19.30;99.90;;;;;;5096101;28;20475;-87
2023/10/09 08:48:56;;;;;;;10.13;4.47;;;19.30;99.90;;;;;;5079224;28;20219;-87
2023/10/09 08:51:25;;;;;;;9.53;4.57;;;19.30;99.90;;;;;;5090292;28;20847;-88
2023/10/09 08:53:52;;;;;;;9.47;4.17;;;19.30;99.90;;;;;;5097573;28;20220;-88
2023/10/09 08:56:22;;;;;;;7.43;4.20;;;19.30;99.90;;;;;;5104226;28;20313;-88
2023/10/09 08:58:57;;;;;;;7.43;3.70;;;19.30;99.90;;;;;;5092574;28;20270;-88
2023/10/09 09:01:24;;;;;;;10.10;4.23;;;19.30;99.90;;;;;;5095112;28;20170;-89
2023/10/09 09:03:55;;;;;;;7.43;3.80;;;19.30;99.90;;;;;;5105193;28;20454;-88
2023/10/09 09:06:23;;;;;;;10.37;4.20;;;19.30;99.90;;;;;;5104023;28;20344;-89
2023/10/09 09:08:54;;;;;;;4.53;3.37;;;19.30;99.90;;;;;;5103285;28;20186;-87
2023/10/09 09:11:24;;;;;;;8.97;4.30;;;19.30;99.90;;;;;;5105870;28;20199;-89
2023/10/09 09:14:02;;;;;;;7.50;4.27;;;19.30;99.90;;;;;;5100443;28;20287;-89
2023/10/09 09:16:31;;;;;;;9.93;4.23;;;19.30;99.90;;;;;;5110299;28;20166;-89
2023/10/09 09:19:02;;;;;;;6.63;3.87;;;19.30;99.90;;;;;;5102032;28;20170;-89
2023/10/09 09:21:32;;;;;;;7.37;4.07;;;19.40;99.90;;;;;;5104549;28;20194;-89
2023/10/09 09:24:05;;;;;;;5.17;3.57;;;19.40;99.90;;;;;;5100976;28;20543;-89
2023/10/09 09:27:00;;;;;;;6.30;4.03;;;19.40;99.90;;;;;;5112191;28;20174;-89
2023/10/09 09:29:37;;;;;;;7.90;4.30;;;19.40;99.90;;;;;;5102944;28;20175;-89
2023/10/09 09:32:21;;;;;;;8.67;4.07;;;19.40;99.90;;;;;;5098088;28;20401;-89
2023/10/09 09:35:01;;;;;;;5.93;4.00;;;19.40;99.90;;;;;;5115124;28;20246;-89
2023/10/09 09:37:28;;;;;;;5.30;3.90;;;19.50;99.90;;;;;;5107799;28;20541;-89
2023/10/09 09:40:14;;;;;;;5.53;3.77;;;19.50;99.90;;;;;;5091393;28;20243;-89
2023/10/09 09:42:48;;;;;;;7.53;3.93;;;19.50;99.90;;;;;;5091751;28;20586;-89
2023/10/09 09:45:16;;;;;;;7.37;4.57;;;19.50;99.90;;;;;;5092241;28;20179;-89
2023/10/09 09:47:51;;;;;;;5.97;4.13;;;19.60;99.90;;;;;;5092419;28;20186;-88
2023/10/09 09:50:24;;;;;;;8.90;4.73;;;19.60;99.90;;;;;;5099982;28;20416;-89
2023/10/09 09:52:55;;;;;;;6.77;4.37;;;19.60;99.90;;;;;;5102447;28;20260;-89
2023/10/09 09:55:32;;;;;;;8.00;4.50;;;19.60;99.90;;;;;;5106596;28;20174;-89
2023/10/09 09:57:58;;;;;;;5.53;4.43;;;19.60;99.90;;;;;;5100053;28;20163;-89
2023/10/09 10:00:30;;;;;;;8.00;4.10;;;19.70;99.90;;;;;;5096488;28;20174;-89
2023/10/09 10:03:18;;;;;;;5.50;3.90;;;19.70;99.90;;;;;;5104101;28;20178;-89
2023/10/09 10:05:48;;;;;;;7.50;3.97;;;19.60;99.90;;;;;;5091679;28;20175;-89
2023/10/09 10:08:19;;;;;;;8.10;4.13;;;19.70;99.90;;;;;;5089219;28;20178;-89
2023/10/09 10:10:57;;;;;;;12.33;4.27;;;19.70;99.90;;;;;;5095891;28;20166;-89
2023/10/09 10:13:41;;;;;;;16.70;4.83;;;19.70;99.90;;;;;;5100661;28;20170;-89
2023/10/09 10:16:19;;;;;;;19.47;5.37;;;19.80;99.90;;;;;;5104000;28;20166;-88
2023/10/09 10:19:00;;;;;;;14.47;4.50;;;19.80;99.90;;;;;;5104133;28;20247;-89
2023/10/09 10:21:52;;;;;;;13.43;4.30;;;19.80;99.90;;;;;;5096067;28;20175;-90
2023/10/09 10:27:27;;;;;;;17.03;4.20;;;19.80;99.90;;;;;;5111456;28;20603;-89
2023/10/09 10:30:13;;;;;;;9.57;3.90;;;19.90;99.90;;;;;;5108529;28;20182;-89
2023/10/09 10:33:22;;;;;;;11.40;4.10;;;19.90;99.90;;;;;;5085668;28;20331;-87
2023/10/09 10:35:52;;;;;;;10.63;4.60;;;19.80;99.90;;;;;;5085090;28;20194;-87
2023/10/09 10:38:39;;;;;;;9.83;4.33;;;19.90;99.90;;;;;;5084330;28;20167;-87
2023/10/09 10:41:17;;;;;;;14.17;4.43;;;19.90;99.90;;;;;;5099311;28;20182;-88
2023/10/09 10:46:24;;;;;;;7.40;4.43;;;19.90;99.90;;;;;;5100939;28;20665;-88
2023/10/09 10:48:59;;;;;;;7.40;4.27;;;19.90;99.90;;;;;;5089843;28;20182;-88
2023/10/09 10:51:37;;;;;;;8.07;4.23;;;19.90;99.90;;;;;;5101369;28;20194;-88
2023/10/09 10:56:49;;;;;;;9.40;4.17;;;20.00;99.90;;;;;;5103689;28;20189;-89
2023/10/09 10:59:22;;;;;;;7.03;4.27;;;20.00;99.90;;;;;;5106725;28;20174;-88
2023/10/09 11:04:27;;;;;;;7.13;3.90;;;20.10;99.90;;;;;;5107929;28;20170;-88
2023/10/09 11:12:39;;;;;;;7.43;3.80;;;20.10;99.90;;;;;;5098742;28;20194;-88
2023/10/09 11:15:07;;;;;;;7.30;4.27;;;20.10;99.90;;;;;;5104327;28;20202;-89
2023/10/09 11:17:35;;;;;;;6.87;4.47;;;20.10;99.90;;;;;;5098817;28;20156;-89
2023/10/09 11:25:50;;;;;;;6.80;4.30;;;20.10;99.90;;;;;;5086152;28;20232;-88
2023/10/09 11:31:33;;;;;;;11.20;4.13;;;20.10;99.90;;;;;;5058471;28;20188;-88
2023/10/09 11:34:01;;;;;;;8.43;4.27;;;20.20;99.90;;;;;;5046512;28;20275;-87
2023/10/09 11:36:34;;;;;;;6.67;4.47;;;20.10;99.90;;;;;;5069384;28;20663;-87
2023/10/09 11:39:13;;;;;;;6.23;4.40;;;20.20;99.90;;;;;;5101016;28;20326;-88
2023/10/09 11:41:42;;;;;;;5.13;3.47;;;20.20;99.90;;;;;;5100399;28;20228;-88
2023/10/09 11:44:33;;;;;;;6.37;3.97;;;20.20;99.90;;;;;;5100531;28;20178;-87
2023/10/09 11:52:35;;;;;;;6.93;3.87;;;20.20;99.90;;;;;;5104364;28;20194;-88
2023/10/09 11:55:06;;;;;;;5.13;3.83;;;20.30;99.90;;;;;;5089811;28;20175;-88
2023/10/09 11:57:35;;;;;;;7.00;4.20;;;20.20;99.90;;;;;;5091291;28;20171;-88
2023/10/09 12:02:47;;;;;;;6.13;3.80;;;20.30;99.90;;;;;;5096430;28;20352;-88
2023/10/09 12:05:16;;;;;;;8.07;4.27;;;20.30;99.90;;;;;;5088701;28;20170;-88
2023/10/09 12:07:49;;;;;;;5.47;3.90;;;20.30;99.90;;;;;;5091736;28;20174;-88
2023/10/09 12:10:14;;;;;;;5.77;4.07;;;20.30;99.90;;;;;;5089142;28;20263;-88
2023/10/09 12:12:46;;;;;;;6.53;4.40;;;20.30;99.90;;;;;;5088307;28;20492;-87
2023/10/09 12:15:17;;;;;;;7.47;4.20;;;20.30;99.90;;;;;;5095774;28;20223;-87
2023/10/09 12:17:46;;;;;;;6.03;4.27;;;20.40;99.90;;;;;;5096678;28;20273;-87
2023/10/09 12:20:29;;;;;;;6.17;3.63;;;20.30;99.90;;;;;;5098078;28;20174;-88
2023/10/09 12:22:59;;;;;;;5.57;4.03;;;20.30;99.90;;;;;;5101195;28;20206;-88
2023/10/09 12:25:31;;;;;;;8.70;4.40;;;20.30;99.90;;;;;;5102707;28;20177;-87
2023/10/09 12:28:03;;;;;;;6.63;4.20;;;20.40;99.90;;;;;;5102155;28;20563;-88
2023/10/09 12:30:30;;;;;;;4.87;3.67;;;20.40;99.90;;;;;;5099300;28;20178;-88
2023/10/09 12:33:01;;;;;;;6.10;3.80;;;20.40;99.90;;;;;;5104464;28;20205;-88
2023/10/09 12:35:28;;;;;;;5.47;3.80;;;20.40;99.90;;;;;;5099896;28;20547;-88
2023/10/09 12:37:54;;;;;;;5.70;3.90;;;20.40;99.90;;;;;;5103037;28;20179;-88
2023/10/09 12:40:24;;;;;;;7.60;4.20;;;20.40;99.90;;;;;;5094898;28;20181;-87
2023/10/09 12:42:55;;;;;;;5.20;4.33;;;20.40;99.90;;;;;;5107116;28;20166;-87
2023/10/09 12:45:32;;;;;;;7.40;4.07;;;20.40;99.90;;;;;;5095146;28;20175;-87
2023/10/09 12:47:59;;;;;;;6.27;4.27;;;20.40;99.90;;;;;;5101910;28;20348;-87
2023/10/09 12:50:34;;;;;;;7.57;4.47;;;20.40;99.90;;;;;;5096323;28;20174;-87
2023/10/09 12:53:06;;;;;;;5.70;4.40;;;20.50;99.90;;;;;;5087696;28;20174;-87
2023/10/09 12:55:35;;;;;;;6.57;3.90;;;20.40;99.90;;;;;;5106562;28;20674;-87
2023/10/09 12:58:07;;;;;;;7.90;4.40;;;20.50;99.90;;;;;;5109728;28;20195;-87
2023/10/09 13:00:43;;;;;;;7.50;4.27;;;20.40;99.90;;;;;;5091738;28;20266;-88
2023/10/09 13:03:18;;;;;;;6.53;4.10;;;20.40;99.90;;;;;;5092764;28;20161;-87
2023/10/09 13:05:56;;;;;;;5.00;4.10;;;20.50;99.90;;;;;;5099153;28;20166;-87
2023/10/09 13:08:22;;;;;;;5.83;3.90;;;20.50;99.90;;;;;;5089657;28;20443;-87
2023/10/09 13:10:58;;;;;;;6.77;4.03;;;20.50;99.90;;;;;;5100425;28;20304;-87
2023/10/09 13:13:40;;;;;;;5.93;4.03;;;20.50;99.90;;;;;;5091806;28;20196;-87
2023/10/09 13:16:20;;;;;;;6.77;4.03;;;20.50;99.90;;;;;;5090756;28;20178;-87
2023/10/09 13:18:49;;;;;;;6.50;4.07;;;20.50;99.90;;;;;;5090549;28;20169;-87
2023/10/09 13:21:38;;;;;;;5.27;4.10;;;20.50;99.90;;;;;;5097854;28;20163;-87
2023/10/09 13:24:04;;;;;;;8.43;4.30;;;20.50;99.90;;;;;;5086594;28;20337;-87
2023/10/09 13:26:32;;;;;;;5.80;4.23;;;20.50;99.90;;;;;;5096351;28;20178;-87
2023/10/09 13:28:59;;;;;;;5.33;3.70;;;20.50;99.90;;;;;;5085368;28;20175;-87
2023/10/09 13:31:26;;;;;;;5.93;4.03;;;20.50;99.90;;;;;;5111600;28;20201;-89
2023/10/09 13:33:55;;;;;;;5.73;4.20;;;20.60;99.90;;;;;;5109008;28;20167;-88
2023/10/09 13:36:35;;;;;;;6.13;4.27;;;20.60;99.90;;;;;;5106363;28;20522;-88
2023/10/09 13:39:24;;;;;;;5.43;4.03;;;20.60;99.90;;;;;;5114347;28;20245;-88
2023/10/09 13:42:06;;;;;;;5.10;4.07;;;20.60;99.90;;;;;;5111277;28;20178;-88
2023/10/09 13:44:33;;;;;;;6.63;4.20;;;20.60;99.90;;;;;;5113644;28;20472;-88
2023/10/09 13:47:11;;;;;;;5.93;4.00;;;20.60;99.90;;;;;;5106579;28;20234;-88
2023/10/09 13:49:40;;;;;;;7.13;4.00;;;20.60;99.90;;;;;;5093245;28;20178;-88
2023/10/09 13:52:07;;;;;;;5.23;3.80;;;20.60;99.90;;;;;;5097958;28;20226;-87
2023/10/09 13:57:00;;;;;;;7.23;3.87;;;20.60;99.90;;;;;;5093588;28;20179;-88
2023/10/09 13:59:25;;;;;;;5.30;3.47;;;20.60;99.90;;;;;;5088520;28;20174;-88
2023/10/09 14:01:54;;;;;;;7.80;3.97;;;20.60;99.90;;;;;;5097319;28;20258;-89
2023/10/09 14:04:21;;;;;;;6.20;4.00;;;20.60;99.90;;;;;;5087282;28;20174;-88
2023/10/09 14:06:48;;;;;;;7.33;4.60;;;20.70;99.90;;;;;;5089608;28;20190;-88
2023/10/09 14:12:10;;;;;;;6.00;4.27;;;20.70;99.90;;;;;;5093864;28;20536;-89
2023/10/09 14:14:48;;;;;;;5.97;4.17;;;20.70;99.90;;;;;;5104220;28;20447;-89
2023/10/09 14:17:18;;;;;;;8.80;4.40;;;20.70;99.90;;;;;;5094776;28;20663;-88
2023/10/09 14:19:47;;;;;;;6.30;4.20;;;20.70;99.90;;;;;;5108344;28;20182;-87
2023/10/09 14:22:17;;;;;;;7.00;4.83;;;20.70;99.90;;;;;;5096864;28;20182;-88
2023/10/09 14:24:47;;;;;;;5.57;4.07;;;20.70;99.90;;;;;;5105300;28;20178;-87
2023/10/09 14:27:19;;;;;;;4.90;4.00;;;20.70;99.90;;;;;;5100775;28;20525;-88
2023/10/09 14:29:49;;;;;;;4.70;3.50;;;20.70;99.90;;;;;;5102929;28;20291;-88
2023/10/09 14:32:15;;;;;;;5.27;4.07;;;20.70;99.90;;;;;;5106345;28;20202;-87
2023/10/09 14:34:53;;;;;;;8.87;3.83;;;20.70;99.90;;;;;;5093388;28;20175;-88
2023/10/09 14:37:19;;;;;;;6.07;3.73;;;20.70;99.90;;;;;;5089975;28;20317;-87
2023/10/09 14:39:48;;;;;;;4.93;3.77;;;20.70;99.90;;;;;;5094478;28;20563;-87
2023/10/09 14:42:17;;;;;;;5.70;3.93;;;20.70;99.90;;;;;;5091941;28;20313;-87
2023/10/09 14:44:45;;;;;;;5.93;4.13;;;20.70;99.90;;;;;;5099163;28;20301;-87
2023/10/09 14:47:14;;;;;;;4.73;3.90;;;20.70;99.90;;;;;;5094868;28;20277;-88
2023/10/09 14:49:44;;;;;;;5.27;4.00;;;20.70;99.90;;;;;;5110550;28;20178;-88
2023/10/09 14:52:10;;;;;;;5.20;4.00;;;20.70;99.90;;;;;;5108956;28;20201;-88
2023/10/09 14:54:38;;;;;;;4.73;3.90;;;20.70;99.90;;;;;;5108116;28;20180;-94
2023/10/09 14:57:26;;;;;;;5.83;4.10;;;20.70;99.90;;;;;;5113454;28;20183;-93
2023/10/09 14:59:53;;;;;;;4.97;3.57;;;20.70;99.90;;;;;;5103079;28;20192;-89
2023/10/09 15:02:19;;;;;;;5.47;4.00;;;20.70;99.90;;;;;;5095976;28;20653;-90
2023/10/09 15:04:44;;;;;;;5.20;3.60;;;20.70;99.90;;;;;;5097352;28;20273;-88
2023/10/09 15:07:12;;;;;;;5.40;4.00;;;20.70;99.90;;;;;;5101704;28;20295;-87
2023/10/09 15:09:39;;;;;;;4.73;3.50;;;20.80;99.90;;;;;;5088005;28;20283;-87
2023/10/09 15:12:06;;;;;;;6.57;4.03;;;20.70;99.90;;;;;;5091215;28;20233;-87
2023/10/09 15:14:32;;;;;;;4.40;3.90;;;20.80;99.90;;;;;;5096654;28;20341;-87
2023/10/09 15:16:58;;;;;;;6.80;3.87;;;20.70;99.90;;;;;;5100370;28;20234;-88
2023/10/09 15:19:30;;;;;;;6.13;4.00;;;20.70;99.90;;;;;;5096612;28;20293;-88
2023/10/09 15:21:59;;;;;;;4.40;3.50;;;20.70;99.90;;;;;;5093466;28;20172;-86
2023/10/09 15:24:30;;;;;;;4.63;3.50;;;20.70;99.90;;;;;;5089435;28;20169;-88
2023/10/09 15:26:58;;;;;;;4.97;3.80;;;20.70;99.90;;;;;;5101315;28;20168;-88
2023/10/09 15:29:28;;;;;;;6.23;4.17;;;20.70;99.90;;;;;;5103464;28;20342;-86
2023/10/09 15:32:04;;;;;;;5.07;4.07;;;20.70;99.90;;;;;;5091679;28;20214;-87
2023/10/09 15:34:36;;;;;;;5.97;4.07;;;20.70;99.90;;;;;;5097598;28;20158;-86
2023/10/09 15:37:07;;;;;;;6.00;4.37;;;20.70;99.90;;;;;;5092345;28;20194;-88
2023/10/09 15:39:34;;;;;;;5.40;3.73;;;20.70;99.90;;;;;;5086321;28;20170;-88
2023/10/09 15:42:00;;;;;;;6.07;3.77;;;20.70;99.90;;;;;;5102936;28;20183;-86
2023/10/09 15:44:25;;;;;;;5.63;4.00;;;20.70;99.90;;;;;;5109650;28;20170;-87
2023/10/09 15:46:59;;;;;;;5.03;3.97;;;20.80;99.90;;;;;;5099520;28;20177;-87